Time;durP1;ratioP1;P1;durP2;ratioP2;P2;SDS_P1;SDS_P2;PMS_P1;PMS_P2;Temp;Humidity;BMP_temperature;BMP_pressure;BME280_temperature;BME280_humidity;BME280_pressure;Samples;Min_cycle;Max_cycle;Signal;HPM_P1;HPM_P2
2022/07/14 00:01:21;;;;;;;7.10;2.67;;;22.40;55.30;;;;;;5058680;28;20045;-51
2022/07/14 00:03:47;;;;;;;5.68;2.97;;;22.40;53.20;;;;;;5057494;28;20025;-50
2022/07/14 00:06:13;;;;;;;5.13;2.70;;;22.40;55.60;;;;;;5058816;28;20100;-51
2022/07/14 00:08:39;;;;;;;5.60;2.80;;;22.30;53.80;;;;;;5058804;28;20048;-48
2022/07/14 00:11:05;;;;;;;5.10;2.90;;;22.20;53.70;;;;;;5058782;28;20029;-51
2022/07/14 00:13:32;;;;;;;4.53;2.95;;;22.20;53.40;;;;;;5058546;28;20018;-50
2022/07/14 00:15:58;;;;;;;5.78;3.00;;;22.10;57.60;;;;;;5058673;28;20029;-47
2022/07/14 00:18:23;;;;;;;4.60;3.05;;;22.00;55.10;;;;;;5058443;28;20028;-49
2022/07/14 00:20:49;;;;;;;5.45;3.00;;;21.90;55.30;;;;;;5058208;28;20108;-50
2022/07/14 00:23:15;;;;;;;4.82;3.40;;;21.80;54.80;;;;;;5058328;28;20057;-50
2022/07/14 00:25:42;;;;;;;7.75;3.22;;;21.90;55.30;;;;;;5058278;28;20033;-48
2022/07/14 00:28:08;;;;;;;6.70;3.45;;;21.80;59.20;;;;;;5058368;28;20104;-49
2022/07/14 00:30:34;;;;;;;5.85;3.63;;;21.70;55.80;;;;;;5058236;28;20021;-49
2022/07/14 00:32:59;;;;;;;5.72;3.03;;;21.70;56.00;;;;;;5058232;28;20037;-47
2022/07/14 00:35:25;;;;;;;5.50;3.72;;;21.60;55.80;;;;;;5058306;28;20024;-50
2022/07/14 00:37:51;;;;;;;5.97;3.80;;;21.50;55.80;;;;;;5058189;28;20025;-49
2022/07/14 00:40:17;;;;;;;6.32;3.65;;;21.40;56.60;;;;;;5058190;28;20056;-51
2022/07/14 00:42:51;;;;;;;5.93;3.58;;;21.40;56.90;;;;;;5058863;28;20029;-49
2022/07/14 00:45:19;;;;;;;7.68;3.70;;;21.30;56.20;;;;;;5058089;28;20056;-51
2022/07/14 00:47:46;;;;;;;6.05;3.80;;;21.30;58.50;;;;;;5058331;28;20029;-50
2022/07/14 00:50:14;;;;;;;7.50;3.65;;;21.30;56.20;;;;;;5057937;28;21148;-49
2022/07/14 00:52:43;;;;;;;5.78;3.85;;;21.20;55.50;;;;;;5057680;28;20095;-50
2022/07/14 00:55:10;;;;;;;9.48;4.25;;;21.20;58.00;;;;;;5057372;28;20189;-48
2022/07/14 00:57:37;;;;;;;7.65;3.95;;;21.20;57.60;;;;;;5056869;28;20483;-49
2022/07/14 01:00:09;;;;;;;7.38;3.65;;;21.10;56.60;;;;;;5058020;28;20029;-51
2022/07/14 01:02:35;;;;;;;6.03;3.67;;;21.10;58.80;;;;;;5057548;28;20460;-49
2022/07/14 01:05:01;;;;;;;6.63;3.55;;;21.00;56.50;;;;;;5057793;28;20051;-48
2022/07/14 01:07:27;;;;;;;6.60;3.70;;;21.00;58.70;;;;;;5057544;28;20079;-47
2022/07/14 01:09:53;;;;;;;6.78;3.90;;;20.90;59.60;;;;;;5057655;28;20025;-53
2022/07/14 01:12:19;;;;;;;7.22;3.78;;;20.90;59.60;;;;;;5057829;28;20025;-52
2022/07/14 01:14:45;;;;;;;8.38;3.80;;;20.90;58.20;;;;;;5058044;28;20017;-49
2022/07/14 01:17:11;;;;;;;6.60;3.92;;;20.80;60.10;;;;;;5057700;28;20473;-47
2022/07/14 01:19:37;;;;;;;6.55;4.03;;;20.70;58.70;;;;;;5057712;28;20029;-49
2022/07/14 01:22:03;;;;;;;6.25;3.80;;;20.70;57.80;;;;;;5057475;28;20088;-48
2022/07/14 01:24:30;;;;;;;8.70;4.00;;;20.70;58.40;;;;;;5057287;28;20029;-51
2022/07/14 01:26:56;;;;;;;6.63;3.75;;;20.60;58.90;;;;;;5057400;28;20449;-49
2022/07/14 01:29:23;;;;;;;6.88;3.75;;;20.60;57.90;;;;;;5057619;28;20025;-49
2022/07/14 01:31:48;;;;;;;6.57;3.70;;;20.50;58.30;;;;;;5057773;28;20043;-49
2022/07/14 01:34:14;;;;;;;6.13;3.65;;;20.50;59.60;;;;;;5057614;28;20025;-47
2022/07/14 01:36:40;;;;;;;7.60;4.00;;;20.40;60.50;;;;;;5057356;28;20021;-49
2022/07/14 01:39:06;;;;;;;7.90;4.25;;;20.40;60.20;;;;;;5057536;28;20040;-48
2022/07/14 01:41:33;;;;;;;6.75;4.15;;;20.40;60.80;;;;;;5057568;28;20025;-49
2022/07/14 01:43:59;;;;;;;8.75;4.00;;;20.40;59.20;;;;;;5057451;28;20025;-51
2022/07/14 01:46:25;;;;;;;7.25;4.30;;;20.40;58.60;;;;;;5057142;28;20385;-49
2022/07/14 01:48:51;;;;;;;6.28;3.67;;;20.30;59.50;;;;;;5057319;28;20036;-47
2022/07/14 01:51:17;;;;;;;5.63;4.10;;;20.30;60.00;;;;;;5057188;28;20026;-48
2022/07/14 01:53:43;;;;;;;7.85;3.90;;;20.20;59.40;;;;;;5057429;28;20021;-50
2022/07/14 01:56:10;;;;;;;7.85;3.83;;;20.20;59.10;;;;;;5057280;28;20021;-50
2022/07/14 01:58:36;;;;;;;6.50;3.83;;;20.20;60.50;;;;;;5057163;28;20091;-47
2022/07/14 02:03:46;;;;;;;7.00;4.18;;;20.20;59.90;;;;;;5057632;28;20064;-51
2022/07/14 02:06:13;;;;;;;6.05;4.20;;;20.20;60.80;;;;;;5059283;28;20025;-51
2022/07/14 02:08:39;;;;;;;6.28;4.15;;;20.10;60.10;;;;;;5060858;28;20021;-48
2022/07/14 02:13:49;;;;;;;7.57;4.20;;;20.10;60.50;;;;;;5061158;28;20040;-48
2022/07/14 02:16:15;;;;;;;8.82;4.75;;;20.10;61.20;;;;;;5060708;28;20508;-49
2022/07/14 02:18:41;;;;;;;6.63;4.18;;;20.00;61.40;;;;;;5060998;28;20029;-48
2022/07/14 02:21:07;;;;;;;8.10;4.47;;;20.00;61.00;;;;;;5060626;28;20029;-48
2022/07/14 02:23:33;;;;;;;7.15;4.53;;;20.00;61.70;;;;;;5060616;28;20064;-49
2022/07/14 02:25:59;;;;;;;7.32;4.90;;;20.00;61.80;;;;;;5060740;28;20025;-47
2022/07/14 02:28:25;;;;;;;11.85;5.25;;;19.90;61.50;;;;;;5060305;28;20461;-49
2022/07/14 02:30:51;;;;;;;9.25;5.50;;;19.90;64.50;;;;;;5060498;28;20087;-50
2022/07/14 02:33:17;;;;;;;8.55;5.50;;;20.00;62.00;;;;;;5060645;28;20025;-49
2022/07/14 02:35:44;;;;;;;11.20;5.93;;;19.90;64.80;;;;;;5060784;28;20021;-47
2022/07/14 02:38:10;;;;;;;12.35;6.25;;;19.90;62.90;;;;;;5060428;28;20029;-50
2022/07/14 02:40:36;;;;;;;8.73;5.50;;;19.90;63.30;;;;;;5060611;28;20032;-48
2022/07/14 02:43:02;;;;;;;8.77;6.20;;;20.00;65.70;;;;;;5060459;28;20502;-50
2022/07/14 02:45:28;;;;;;;10.13;6.43;;;19.90;63.50;;;;;;5060159;28;20440;-48
2022/07/14 02:47:53;;;;;;;11.80;6.10;;;19.90;64.30;;;;;;5060139;28;20025;-51
2022/07/14 02:50:19;;;;;;;10.13;6.80;;;19.90;67.20;;;;;;5060360;28;20025;-52
2022/07/14 02:52:45;;;;;;;9.95;6.18;;;19.90;64.80;;;;;;5060216;28;20032;-52
2022/07/14 02:55:11;;;;;;;9.48;6.57;;;19.90;65.50;;;;;;5060047;28;20063;-49
2022/07/14 02:57:37;;;;;;;10.32;5.97;;;19.90;65.70;;;;;;5060118;28;20033;-47
2022/07/14 03:00:04;;;;;;;11.32;6.78;;;19.80;63.90;;;;;;5059776;28;20075;-50
2022/07/14 03:02:30;;;;;;;9.98;6.63;;;19.80;66.70;;;;;;5060428;28;20024;-50
2022/07/14 03:04:56;;;;;;;9.45;6.50;;;19.80;65.90;;;;;;5059685;28;20384;-51
2022/07/14 03:07:22;;;;;;;10.00;6.88;;;19.80;66.20;;;;;;5059924;28;20025;-48
2022/07/14 03:09:47;;;;;;;9.95;7.47;;;19.80;64.60;;;;;;5060180;28;20017;-50
2022/07/14 03:12:13;;;;;;;11.82;7.45;;;19.80;65.60;;;;;;5059938;28;20033;-47
2022/07/14 03:14:39;;;;;;;10.70;6.70;;;19.80;63.80;;;;;;5059934;28;20023;-50
2022/07/14 03:17:05;;;;;;;12.38;7.70;;;19.80;65.00;;;;;;5058906;28;20064;-50
2022/07/14 03:19:30;;;;;;;13.13;8.40;;;19.70;64.50;;;;;;5059790;28;20025;-49
2022/07/14 03:21:56;;;;;;;12.00;7.60;;;19.70;64.20;;;;;;5059921;28;20036;-51
2022/07/14 03:24:22;;;;;;;12.75;8.43;;;19.70;65.10;;;;;;5059663;28;20032;-48
2022/07/14 03:26:48;;;;;;;13.30;8.93;;;19.70;65.20;;;;;;5059331;28;20040;-47
2022/07/14 03:29:14;;;;;;;12.00;8.55;;;19.70;65.40;;;;;;5059630;28;20029;-49
2022/07/14 03:31:39;;;;;;;11.70;8.10;;;19.60;68.00;;;;;;5059362;28;20032;-50
2022/07/14 03:34:05;;;;;;;12.65;8.68;;;19.60;68.40;;;;;;5059285;28;20031;-50
2022/07/14 03:36:31;;;;;;;13.35;9.23;;;19.60;66.40;;;;;;5059527;28;20083;-48
2022/07/14 03:38:57;;;;;;;15.50;9.88;;;19.60;66.70;;;;;;5059386;28;20025;-47
2022/07/14 03:41:23;;;;;;;15.95;10.73;;;19.60;67.40;;;;;;5059206;28;20029;-50
2022/07/14 03:43:49;;;;;;;16.73;11.23;;;19.60;68.40;;;;;;5059475;28;20029;-52
2022/07/14 03:46:14;;;;;;;15.60;10.75;;;19.60;68.00;;;;;;5058986;28;20033;-51
2022/07/14 03:48:40;;;;;;;14.38;9.88;;;19.60;66.70;;;;;;5059039;28;20013;-51
2022/07/14 03:51:07;;;;;;;13.93;10.50;;;19.50;69.30;;;;;;5059155;28;20028;-51
2022/07/14 03:53:33;;;;;;;16.02;11.25;;;19.50;67.20;;;;;;5058972;28;20104;-52
2022/07/14 03:56:00;;;;;;;15.25;10.40;;;19.50;68.50;;;;;;5058852;28;20400;-49
2022/07/14 03:58:26;;;;;;;13.38;9.55;;;19.40;68.70;;;;;;5058854;28;20119;-48
2022/07/14 04:00:53;;;;;;;14.93;10.20;;;19.40;69.60;;;;;;5058791;28;20052;-53
2022/07/14 04:03:19;;;;;;;15.73;10.70;;;19.40;67.70;;;;;;5058891;28;20033;-50
2022/07/14 04:05:46;;;;;;;15.63;10.00;;;19.40;70.20;;;;;;5059016;28;20033;-48
2022/07/14 04:08:12;;;;;;;13.57;9.77;;;19.40;67.20;;;;;;5058669;28;20021;-52
2022/07/14 04:10:38;;;;;;;14.70;10.23;;;19.30;71.20;;;;;;5058600;28;20053;-49
2022/07/14 04:13:04;;;;;;;15.00;9.35;;;19.30;68.20;;;;;;5058463;28;20025;-50
2022/07/14 04:15:30;;;;;;;16.67;11.43;;;19.30;70.10;;;;;;5058529;28;20469;-48
2022/07/14 04:17:57;;;;;;;14.18;10.15;;;19.30;68.90;;;;;;5058497;28;20029;-51
2022/07/14 04:20:24;;;;;;;14.40;9.80;;;19.30;68.00;;;;;;5058461;28;20025;-49
2022/07/14 04:22:50;;;;;;;17.88;10.50;;;19.30;67.50;;;;;;5058565;28;20021;-50
2022/07/14 04:25:17;;;;;;;13.30;9.57;;;19.30;71.90;;;;;;5058490;28;20040;-50
2022/07/14 04:27:43;;;;;;;15.20;10.05;;;19.20;69.20;;;;;;5058656;28;20074;-49
2022/07/14 04:30:11;;;;;;;16.27;10.98;;;19.30;70.00;;;;;;5057669;28;20078;-48
2022/07/14 04:32:37;;;;;;;13.20;9.35;;;19.30;69.30;;;;;;5058423;28;20021;-49
2022/07/14 04:35:04;;;;;;;14.38;9.35;;;19.30;72.60;;;;;;5058159;28;20025;-51
2022/07/14 04:37:30;;;;;;;14.68;10.18;;;19.20;69.80;;;;;;5058275;28;20028;-48
2022/07/14 04:39:56;;;;;;;13.93;9.65;;;19.30;68.90;;;;;;5058224;28;20025;-50
2022/07/14 04:42:22;;;;;;;16.02;9.95;;;19.20;69.90;;;;;;5058159;28;20024;-50
2022/07/14 04:44:48;;;;;;;15.27;10.40;;;19.20;69.40;;;;;;5058582;28;20023;-50
2022/07/14 04:47:14;;;;;;;14.38;10.00;;;19.30;69.50;;;;;;5057875;28;20021;-51
2022/07/14 04:52:25;;;;;;;16.20;10.27;;;19.20;69.30;;;;;;5057974;28;20067;-48
2022/07/14 04:54:51;;;;;;;15.02;9.23;;;19.20;72.30;;;;;;5057773;28;20028;-52
2022/07/14 04:57:18;;;;;;;15.13;9.15;;;19.20;70.30;;;;;;5057844;28;20370;-53
2022/07/14 04:59:45;;;;;;;14.27;9.20;;;19.20;71.40;;;;;;5057656;28;20090;-49
2022/07/14 05:02:11;;;;;;;14.68;9.88;;;19.20;72.60;;;;;;5057387;28;20056;-49
2022/07/14 05:04:36;;;;;;;12.48;9.32;;;19.20;71.30;;;;;;5057926;28;20031;-51
2022/07/14 05:07:03;;;;;;;13.65;8.68;;;19.20;69.20;;;;;;5057709;28;20108;-50
2022/07/14 05:09:32;;;;;;;12.77;8.60;;;19.20;70.80;;;;;;5057854;28;20100;-49
2022/07/14 05:11:59;;;;;;;13.45;9.38;;;19.20;71.90;;;;;;5057444;28;20058;-48
2022/07/14 05:14:25;;;;;;;13.05;8.00;;;19.20;71.60;;;;;;5057557;28;20040;-52
2022/07/14 05:16:51;;;;;;;13.65;9.57;;;19.20;70.10;;;;;;5057862;28;20029;-50
2022/07/14 05:19:17;;;;;;;14.55;9.13;;;19.20;72.70;;;;;;5057455;28;20065;-49
2022/07/14 05:21:44;;;;;;;13.52;8.60;;;19.20;71.90;;;;;;5057573;28;20107;-49
2022/07/14 05:24:11;;;;;;;14.57;9.48;;;19.20;70.40;;;;;;5057513;28;20052;-52
2022/07/14 05:26:37;;;;;;;13.90;8.40;;;19.20;70.30;;;;;;5057590;28;20508;-48
2022/07/14 05:29:03;;;;;;;13.27;9.25;;;19.20;72.10;;;;;;5057590;28;20024;-49
2022/07/14 05:31:29;;;;;;;14.45;9.45;;;19.20;72.60;;;;;;5057600;28;20021;-51
2022/07/14 05:33:56;;;;;;;15.23;9.00;;;19.20;70.90;;;;;;5057547;28;20396;-55
2022/07/14 05:36:25;;;;;;;14.38;9.23;;;19.20;72.50;;;;;;5057619;28;20021;-53
2022/07/14 05:38:52;;;;;;;13.38;9.05;;;19.10;70.50;;;;;;5057395;28;20036;-51
2022/07/14 05:41:19;;;;;;;13.85;8.73;;;19.20;72.20;;;;;;5059900;28;20029;-50
2022/07/14 05:43:46;;;;;;;14.20;9.35;;;19.30;74.00;;;;;;5061621;28;20079;-49
2022/07/14 05:46:13;;;;;;;14.23;8.57;;;19.30;74.90;;;;;;5061267;28;20035;-49
2022/07/14 05:48:39;;;;;;;15.10;9.00;;;19.30;75.80;;;;;;5061541;28;20020;-52
2022/07/14 05:51:07;;;;;;;13.70;8.65;;;19.40;74.20;;;;;;5060998;28;20561;-52
2022/07/14 05:53:33;;;;;;;14.73;8.68;;;19.40;73.00;;;;;;5061123;28;20404;-52
2022/07/14 05:55:59;;;;;;;14.75;8.63;;;19.40;74.70;;;;;;5061253;28;20017;-52
2022/07/14 05:58:25;;;;;;;14.88;8.80;;;19.50;73.10;;;;;;5061218;28;20396;-52
2022/07/14 06:00:51;;;;;;;12.13;8.30;;;19.50;74.60;;;;;;5060746;28;20536;-52
2022/07/14 06:03:19;;;;;;;14.80;8.85;;;19.60;73.00;;;;;;5061160;28;20088;-53
2022/07/14 06:05:45;;;;;;;13.80;8.60;;;19.60;74.50;;;;;;5061218;28;20052;-55
2022/07/14 06:08:11;;;;;;;15.93;8.88;;;19.70;75.40;;;;;;5061291;28;20465;-55
2022/07/14 06:10:37;;;;;;;12.18;7.78;;;19.70;72.60;;;;;;5060643;28;20041;-55
2022/07/14 06:13:03;;;;;;;15.18;8.82;;;19.70;73.80;;;;;;5060874;28;20021;-53
2022/07/14 06:15:30;;;;;;;12.75;8.68;;;19.70;73.50;;;;;;5060861;28;20029;-52
2022/07/14 06:17:55;;;;;;;13.82;8.50;;;19.70;73.80;;;;;;5060722;28;20499;-49
2022/07/14 06:20:21;;;;;;;13.57;8.32;;;19.70;74.30;;;;;;5060994;28;20029;-52
2022/07/14 06:22:49;;;;;;;13.35;8.15;;;19.70;74.20;;;;;;5060593;28;20607;-53
2022/07/14 06:25:15;;;;;;;15.98;9.20;;;19.80;73.10;;;;;;5060631;28;20109;-54
2022/07/14 06:27:41;;;;;;;14.93;8.60;;;19.80;72.40;;;;;;5060704;28;20024;-50
2022/07/14 06:30:08;;;;;;;17.15;7.63;;;19.80;73.20;;;;;;5060562;28;20075;-48
2022/07/14 06:32:39;;;;;;;11.13;7.07;;;19.90;73.20;;;;;;5060582;28;20564;-52
2022/07/14 06:35:06;;;;;;;12.68;7.13;;;19.80;73.50;;;;;;5060250;28;20033;-54
2022/07/14 06:37:34;;;;;;;11.73;6.80;;;19.90;74.60;;;;;;5060526;28;20503;-54
2022/07/14 06:40:05;;;;;;;12.45;6.20;;;19.80;73.30;;;;;;5060516;28;20028;-48
2022/07/14 06:42:31;;;;;;;12.38;6.57;;;19.80;72.70;;;;;;5059129;28;20033;-54
2022/07/14 06:44:57;;;;;;;10.32;5.90;;;19.80;73.40;;;;;;5059699;28;20393;-55
2022/07/14 06:47:23;;;;;;;10.45;5.35;;;19.90;73.60;;;;;;5059392;28;20029;-51
2022/07/14 06:49:49;;;;;;;10.15;5.68;;;19.90;72.50;;;;;;5059783;28;20021;-51
2022/07/14 06:52:16;;;;;;;10.30;5.80;;;20.00;73.40;;;;;;5058670;28;20028;-53
2022/07/14 06:54:42;;;;;;;7.78;4.85;;;20.00;73.40;;;;;;5059707;28;20025;-55
2022/07/14 06:57:08;;;;;;;9.68;5.28;;;20.10;72.00;;;;;;5059568;28;20025;-50
2022/07/14 06:59:33;;;;;;;10.23;5.53;;;20.10;73.30;;;;;;5059634;28;20025;-51
2022/07/14 07:01:59;;;;;;;7.70;4.60;;;20.10;71.20;;;;;;5057419;28;20049;-53
2022/07/14 07:04:25;;;;;;;8.73;4.47;;;20.10;71.20;;;;;;5059382;28;20113;-53
2022/07/14 07:06:52;;;;;;;9.13;4.30;;;20.20;71.00;;;;;;5059434;28;20052;-53
2022/07/14 07:09:19;;;;;;;8.18;4.30;;;20.20;71.80;;;;;;5057800;28;20028;-55
2022/07/14 07:11:49;;;;;;;10.15;4.95;;;20.20;72.00;;;;;;5058803;28;20033;-50
2022/07/14 07:14:17;;;;;;;10.40;4.75;;;20.20;70.90;;;;;;5059188;28;20032;-53
2022/07/14 07:16:45;;;;;;;13.07;4.80;;;20.30;71.20;;;;;;5059133;28;20020;-50
2022/07/14 07:19:10;;;;;;;9.48;4.18;;;20.30;70.50;;;;;;5058737;28;20037;-55
2022/07/14 07:21:36;;;;;;;9.52;4.60;;;20.40;70.90;;;;;;5058937;28;20112;-56
2022/07/14 07:24:02;;;;;;;7.90;4.00;;;20.40;71.60;;;;;;5059047;28;20052;-56
2022/07/14 07:26:33;;;;;;;10.05;4.15;;;20.50;70.90;;;;;;5059017;28;20078;-55
2022/07/14 07:28:59;;;;;;;8.93;4.18;;;20.60;70.70;;;;;;5059258;28;20043;-55
2022/07/14 07:31:25;;;;;;;11.52;4.30;;;20.60;70.50;;;;;;5059629;28;20104;-56
2022/07/14 07:33:51;;;;;;;8.52;3.78;;;20.70;70.10;;;;;;5059610;28;20025;-55
2022/07/14 07:36:19;;;;;;;8.82;4.07;;;20.80;70.20;;;;;;5059144;28;20029;-52
2022/07/14 07:38:44;;;;;;;10.60;3.72;;;20.80;70.60;;;;;;5057758;28;20055;-51
2022/07/14 07:41:10;;;;;;;6.18;3.80;;;20.90;69.50;;;;;;5057068;28;20048;-55
2022/07/14 07:43:36;;;;;;;10.18;4.15;;;21.00;69.80;;;;;;5057610;28;20550;-56
2022/07/14 07:46:03;;;;;;;9.73;4.03;;;21.00;68.90;;;;;;5058998;28;20028;-51
2022/07/14 07:48:29;;;;;;;6.40;3.65;;;21.10;69.30;;;;;;5059136;28;20029;-53
2022/07/14 07:50:56;;;;;;;9.90;3.78;;;21.10;68.80;;;;;;5058890;28;20504;-55
2022/07/14 07:53:22;;;;;;;9.77;3.88;;;21.10;68.70;;;;;;5059121;28;20025;-54
2022/07/14 07:55:48;;;;;;;7.60;3.63;;;21.20;68.80;;;;;;5059066;28;20437;-56
2022/07/14 07:58:13;;;;;;;7.45;3.45;;;21.30;68.60;;;;;;5057147;28;20084;-55
2022/07/14 08:00:39;;;;;;;7.25;3.25;;;21.30;68.30;;;;;;5056980;28;20055;-54
2022/07/14 08:03:05;;;;;;;5.32;3.30;;;21.40;68.00;;;;;;5057227;28;20040;-55
2022/07/14 08:05:32;;;;;;;7.63;3.33;;;21.40;68.50;;;;;;5058012;28;20039;-55
2022/07/14 08:07:58;;;;;;;9.45;3.67;;;21.50;68.20;;;;;;5057945;28;20025;-55
2022/07/14 08:10:24;;;;;;;8.00;3.10;;;21.50;67.80;;;;;;5058042;28;20028;-56
2022/07/14 08:12:50;;;;;;;6.45;3.30;;;21.50;68.00;;;;;;5057973;28;20026;-55
2022/07/14 08:15:18;;;;;;;6.43;3.17;;;21.60;67.30;;;;;;5058226;28;20068;-55
2022/07/14 08:17:44;;;;;;;7.85;3.50;;;21.70;67.40;;;;;;5058675;28;20020;-54
2022/07/14 08:20:10;;;;;;;7.28;3.25;;;21.70;66.90;;;;;;5058310;28;20103;-53
2022/07/14 08:22:37;;;;;;;8.98;3.53;;;21.70;66.60;;;;;;5058872;28;20025;-52
2022/07/14 08:25:06;;;;;;;8.63;3.17;;;21.80;66.80;;;;;;5058358;28;20032;-56
2022/07/14 08:27:33;;;;;;;8.25;3.47;;;21.80;66.40;;;;;;5058091;28;20029;-54
2022/07/14 08:29:59;;;;;;;7.38;3.13;;;21.90;66.90;;;;;;5058274;28;20465;-54
2022/07/14 08:32:46;;;;;;;6.53;3.25;;;21.90;65.80;;;;;;5058220;28;20174;-53
2022/07/14 08:35:17;;;;;;;6.22;2.85;;;22.00;66.40;;;;;;5058432;28;20449;-56
2022/07/14 08:37:43;;;;;;;7.40;3.22;;;22.00;66.60;;;;;;5058501;28;20017;-56
2022/07/14 08:40:12;;;;;;;5.85;3.00;;;22.10;66.80;;;;;;5058184;28;20017;-53
2022/07/14 08:42:42;;;;;;;7.57;2.80;;;22.20;65.50;;;;;;5058305;28;20067;-56
2022/07/14 08:45:10;;;;;;;9.05;3.17;;;22.30;65.60;;;;;;5057835;28;20024;-54
2022/07/14 08:47:37;;;;;;;4.85;2.75;;;22.30;65.40;;;;;;5057918;28;20477;-56
2022/07/14 08:50:09;;;;;;;7.72;2.72;;;22.30;65.10;;;;;;5057887;28;20021;-56
2022/07/14 08:52:36;;;;;;;7.65;3.20;;;22.40;64.80;;;;;;5057870;28;20091;-56
2022/07/14 08:55:04;;;;;;;5.95;2.97;;;22.40;65.10;;;;;;5057707;28;20083;-54
2022/07/14 08:57:30;;;;;;;11.88;3.15;;;22.50;65.50;;;;;;5057848;28;20028;-56
2022/07/14 08:59:57;;;;;;;6.25;2.90;;;22.60;65.10;;;;;;5057656;28;20021;-55
2022/07/14 09:02:23;;;;;;;4.97;2.58;;;22.70;65.40;;;;;;5058303;28;20121;-55
2022/07/14 09:04:49;;;;;;;7.68;2.80;;;22.80;65.30;;;;;;5057550;28;20523;-56
2022/07/14 09:07:37;;;;;;;6.10;3.28;;;22.80;65.00;;;;;;5057639;28;20092;-51
2022/07/14 09:10:12;;;;;;;6.90;2.88;;;22.90;63.90;;;;;;5057895;28;20477;-54
2022/07/14 09:12:39;;;;;;;6.40;3.08;;;22.90;63.90;;;;;;5057864;28;20140;-55
2022/07/14 09:18:04;;;;;;;7.75;3.00;;;23.00;63.70;;;;;;5057878;28;20036;-56
2022/07/14 09:20:32;;;;;;;5.70;2.47;;;23.10;64.10;;;;;;5057810;28;20511;-54
2022/07/14 09:22:59;;;;;;;6.68;2.88;;;23.10;64.30;;;;;;5057552;28;20106;-56
2022/07/14 09:25:29;;;;;;;5.60;2.78;;;23.20;64.10;;;;;;5057516;28;20029;-53
2022/07/14 09:27:55;;;;;;;8.13;2.40;;;23.40;63.90;;;;;;5057491;28;20020;-56
2022/07/14 09:30:22;;;;;;;5.15;2.20;;;23.40;64.00;;;;;;5057505;28;20025;-56
2022/07/14 09:32:51;;;;;;;5.60;2.28;;;23.60;63.30;;;;;;5057505;28;20362;-54
2022/07/14 09:35:22;;;;;;;4.47;2.50;;;23.60;63.10;;;;;;5057371;28;20021;-57
2022/07/14 09:37:50;;;;;;;5.75;2.63;;;23.70;63.10;;;;;;5057550;28;20099;-56
2022/07/14 09:40:27;;;;;;;4.20;2.38;;;23.80;62.70;;;;;;5057368;28;20033;-55
2022/07/14 09:43:04;;;;;;;4.88;2.33;;;23.90;61.60;;;;;;5057470;28;20099;-55
2022/07/14 09:45:31;;;;;;;4.20;2.55;;;24.00;62.00;;;;;;5057103;28;20378;-56
2022/07/14 09:48:08;;;;;;;7.88;2.60;;;24.10;60.80;;;;;;5057435;28;20032;-54
2022/07/14 09:50:37;;;;;;;5.00;2.78;;;24.30;61.10;;;;;;5057593;28;20048;-56
2022/07/14 09:53:22;;;;;;;6.03;2.60;;;24.40;60.00;;;;;;5057205;28;20499;-54
2022/07/14 09:55:58;;;;;;;5.85;2.80;;;24.60;60.90;;;;;;5057343;28;20036;-52
2022/07/14 09:58:31;;;;;;;6.35;2.72;;;24.90;61.60;;;;;;5057170;28;20021;-55
2022/07/14 10:01:24;;;;;;;7.47;2.75;;;25.20;60.10;;;;;;5056868;28;20531;-54
2022/07/14 10:03:54;;;;;;;6.60;2.80;;;25.50;59.00;;;;;;5055038;28;20037;-55
2022/07/14 10:06:21;;;;;;;6.60;2.80;;;25.60;56.90;;;;;;5057199;28;20419;-57
2022/07/14 10:08:53;;;;;;;5.45;2.80;;;25.80;55.00;;;;;;5057050;28;20048;-57
2022/07/14 10:11:19;;;;;;;6.15;2.53;;;26.00;54.10;;;;;;5057053;28;20465;-56
2022/07/14 10:13:46;;;;;;;5.90;2.65;;;26.30;56.50;;;;;;5057114;28;20138;-56
2022/07/14 10:16:12;;;;;;;5.75;2.63;;;26.50;55.50;;;;;;5056117;28;20535;-56
2022/07/14 10:18:42;;;;;;;6.93;2.60;;;26.80;54.20;;;;;;5057221;28;20033;-57
2022/07/14 10:21:10;;;;;;;7.35;2.70;;;27.10;54.90;;;;;;5057256;28;20025;-56
2022/07/14 10:23:37;;;;;;;6.22;2.85;;;27.40;51.80;;;;;;5057202;28;20036;-57
2022/07/14 10:26:05;;;;;;;6.97;2.50;;;27.80;56.40;;;;;;5057135;28;20025;-56
2022/07/14 10:28:31;;;;;;;5.80;2.53;;;28.30;50.10;;;;;;5060452;28;20029;-55
2022/07/14 10:31:21;;;;;;;6.55;2.45;;;28.40;46.40;;;;;;5061002;28;20021;-56
2022/07/14 10:34:02;;;;;;;5.18;2.10;;;28.60;47.10;;;;;;5060443;28;20397;-57
2022/07/14 10:36:28;;;;;;;3.30;2.03;;;28.90;48.40;;;;;;5061016;28;20032;-57
2022/07/14 10:39:22;;;;;;;5.57;1.90;;;29.30;45.90;;;;;;5060631;28;20029;-57
2022/07/14 10:42:01;;;;;;;4.45;1.90;;;29.70;45.90;;;;;;5059435;28;20064;-56
2022/07/14 10:44:30;;;;;;;4.80;2.10;;;30.00;45.80;;;;;;5060404;28;20036;-57
2022/07/14 10:47:16;;;;;;;4.53;1.85;;;30.20;46.30;;;;;;5060404;28;20029;-56
2022/07/14 10:50:01;;;;;;;4.05;1.90;;;30.60;47.80;;;;;;5060422;28;20033;-57
2022/07/14 10:52:29;;;;;;;6.00;1.90;;;31.00;47.80;;;;;;5060118;28;20455;-57
2022/07/14 10:55:13;;;;;;;6.72;2.42;;;31.40;47.50;;;;;;5059978;28;20108;-57
2022/07/14 10:57:59;;;;;;;4.95;1.92;;;31.50;42.70;;;;;;5060281;28;20035;-57
2022/07/14 11:01:00;;;;;;;3.88;1.70;;;31.70;44.20;;;;;;5059735;28;20080;-57
2022/07/14 11:03:28;;;;;;;4.38;2.05;;;32.00;46.90;;;;;;5060032;28;20135;-57
2022/07/14 11:08:28;;;;;;;3.72;1.67;;;32.80;36.90;;;;;;5060107;28;20017;-58
2022/07/14 11:10:55;;;;;;;6.07;1.83;;;33.10;42.10;;;;;;5060029;28;20031;-59
2022/07/14 11:13:21;;;;;;;3.75;1.45;;;33.60;40.70;;;;;;5060012;28;20041;-58
2022/07/14 11:15:56;;;;;;;4.82;1.65;;;33.80;43.30;;;;;;5059887;28;20096;-58
2022/07/14 11:18:24;;;;;;;3.65;1.60;;;34.00;40.90;;;;;;5059744;28;20476;-58
2022/07/14 11:20:55;;;;;;;3.92;1.70;;;34.10;40.70;;;;;;5059801;28;20432;-59
2022/07/14 11:23:26;;;;;;;2.88;1.67;;;34.20;40.50;;;;;;5059439;28;20377;-58
2022/07/14 11:25:54;;;;;;;4.40;1.50;;;34.20;36.00;;;;;;5059612;28;20032;-58
2022/07/14 11:28:48;;;;;;;4.00;1.77;;;34.30;40.20;;;;;;5059418;28;20025;-59
2022/07/14 11:31:16;;;;;;;4.35;1.40;;;34.50;40.70;;;;;;5059505;28;20099;-59
2022/07/14 11:36:32;;;;;;;3.75;1.50;;;35.00;41.00;;;;;;5059591;28;20036;-59
2022/07/14 11:39:16;;;;;;;3.97;1.60;;;35.20;35.50;;;;;;5058983;28;20025;-59
2022/07/14 11:41:45;;;;;;;4.57;1.58;;;35.30;39.50;;;;;;5059201;28;20033;-59
2022/07/14 11:44:33;;;;;;;4.03;1.60;;;35.40;32.10;;;;;;5059100;28;20186;-59
2022/07/14 11:47:00;;;;;;;2.17;1.35;;;35.50;39.40;;;;;;5059072;28;20056;-59
2022/07/14 11:49:26;;;;;;;1.85;1.27;;;35.70;35.30;;;;;;5059098;28;20021;-59
2022/07/14 11:51:56;;;;;;;4.18;1.60;;;36.00;35.10;;;;;;5059054;28;20029;-59
2022/07/14 11:54:23;;;;;;;4.53;1.15;;;35.90;32.60;;;;;;5059205;28;20021;-59
2022/07/14 11:56:49;;;;;;;3.53;1.40;;;35.80;31.70;;;;;;5058981;28;20033;-58
2022/07/14 11:59:19;;;;;;;3.17;1.30;;;35.70;34.10;;;;;;5059126;28;20089;-59
2022/07/14 12:01:45;;;;;;;2.97;1.40;;;35.60;32.70;;;;;;5058774;28;20452;-59
2022/07/14 12:04:12;;;;;;;3.40;1.60;;;35.40;29.90;;;;;;5059302;28;20021;-59
2022/07/14 12:06:39;;;;;;;4.22;1.30;;;35.60;30.50;;;;;;5058525;28;20461;-59
2022/07/14 12:09:05;;;;;;;4.00;1.42;;;35.60;32.70;;;;;;5058933;28;20048;-59
2022/07/14 12:11:30;;;;;;;3.85;1.33;;;35.80;32.50;;;;;;5058753;28;20040;-58
2022/07/14 12:13:56;;;;;;;3.53;1.33;;;35.90;33.70;;;;;;5058665;28;20473;-59
2022/07/14 12:16:23;;;;;;;1.65;1.20;;;36.10;32.50;;;;;;5058766;28;20104;-59
2022/07/14 12:18:56;;;;;;;4.22;1.30;;;36.20;33.30;;;;;;5058589;28;20081;-59
2022/07/14 12:21:35;;;;;;;5.72;1.73;;;36.20;29.10;;;;;;5057307;28;20052;-58
2022/07/14 12:24:03;;;;;;;3.17;1.00;;;36.40;31.80;;;;;;5058900;28;20029;-59
2022/07/14 12:26:29;;;;;;;2.50;1.20;;;36.50;31.00;;;;;;5058625;28;20032;-58
2022/07/14 12:28:58;;;;;;;2.88;1.25;;;36.70;31.10;;;;;;5058552;28;20017;-59
2022/07/14 12:31:24;;;;;;;1.77;1.00;;;36.80;28.40;;;;;;5058382;28;20025;-58
2022/07/14 12:33:56;;;;;;;1.95;1.17;;;36.90;28.60;;;;;;5058452;28;20031;-59
2022/07/14 12:36:30;;;;;;;7.80;1.70;;;36.90;28.90;;;;;;5058611;28;20021;-58
2022/07/14 12:38:58;;;;;;;2.60;1.20;;;37.10;29.10;;;;;;5058286;28;20037;-59
2022/07/14 12:41:25;;;;;;;3.88;1.20;;;37.20;29.60;;;;;;5058456;28;20024;-58
2022/07/14 12:43:52;;;;;;;3.35;1.00;;;37.20;28.80;;;;;;5058097;28;20017;-58
2022/07/14 12:46:20;;;;;;;5.53;1.27;;;37.40;29.90;;;;;;5058052;28;20032;-57
2022/07/14 12:48:49;;;;;;;4.65;1.40;;;37.50;29.20;;;;;;5057950;28;20047;-59
2022/07/14 12:51:20;;;;;;;5.75;1.60;;;37.30;29.10;;;;;;5057127;28;20115;-58
2022/07/14 12:54:03;;;;;;;2.10;1.10;;;37.00;28.80;;;;;;5058097;28;20369;-58
2022/07/14 12:56:31;;;;;;;;;;;37.00;28.40;;;;;;5058698;28;20088;-58
2022/07/14 12:58:59;;;;;;;3.35;1.42;;;37.20;29.90;;;;;;5057797;28;19912;-57
2022/07/14 13:01:26;;;;;;;3.75;1.30;;;37.20;28.60;;;;;;5058084;28;20084;-57
2022/07/14 13:03:57;;;;;;;2.97;1.25;;;37.20;29.10;;;;;;5057695;28;20531;-59